FDB845 OMDB-OERK
Flight info
| Callsign | FDB845 |
|---|---|
| Flight time | N/A |
| Altitude | 28000 |
| Route | ANVIX R401 GIDIS G783 RIGIL M628 AMBAG M321 NAGUB |
| Aircraft | B738/M-SDE2E3FGHIRWXY/LB1 |
Departure
| Time | 2026-04-22 15:39 |
|---|---|
| Airport | Dubai International Airport (OMDB) |
Arrival
| Time | N/A |
|---|---|
| Airport | King Khalid International Airport (OERK) |
| Time | Latitude | Longitude | Altitude | Speed | Heading |
|---|---|---|---|---|---|
| 2026-04-22 15:00 | 25.25799 | 55.36969 | 39 ft | 0 kts | 31° |
| 2026-04-22 15:23 | 25.25792 | 55.36964 | 39 ft | 2 kts | 32° |
| 2026-04-22 15:24 | 25.25780 | 55.36956 | 39 ft | 2 kts | 31° |
| 2026-04-22 15:24 | 25.25769 | 55.36948 | 39 ft | 2 kts | 31° |
| 2026-04-22 15:24 | 25.25756 | 55.36940 | 39 ft | 2 kts | 31° |
| 2026-04-22 15:24 | 25.25745 | 55.36929 | 39 ft | 2 kts | 55° |
| 2026-04-22 15:25 | 25.25738 | 55.36915 | 39 ft | 2 kts | 72° |
| 2026-04-22 15:25 | 25.25736 | 55.36900 | 39 ft | 2 kts | 91° |
| 2026-04-22 15:25 | 25.25738 | 55.36883 | 39 ft | 2 kts | 110° |
| 2026-04-22 15:25 | 25.25742 | 55.36874 | 39 ft | 1 kts | 122° |
| 2026-04-22 15:26 | 25.25745 | 55.36869 | 39 ft | 0 kts | 122° |
| 2026-04-22 15:29 | 25.25744 | 55.36869 | 39 ft | 0 kts | 122° |
| 2026-04-22 15:30 | 25.25730 | 55.36896 | 39 ft | 4 kts | 121° |
| 2026-04-22 15:30 | 25.25704 | 55.36945 | 39 ft | 6 kts | 119° |
| 2026-04-22 15:30 | 25.25676 | 55.36996 | 39 ft | 8 kts | 121° |
| 2026-04-22 15:30 | 25.25641 | 55.37059 | 39 ft | 10 kts | 122° |
| 2026-04-22 15:31 | 25.25598 | 55.37135 | 39 ft | 12 kts | 122° |
| 2026-04-22 15:31 | 25.25550 | 55.37221 | 39 ft | 14 kts | 121° |
| 2026-04-22 15:31 | 25.25495 | 55.37320 | 39 ft | 15 kts | 121° |
| 2026-04-22 15:31 | 25.25415 | 55.37384 | 39 ft | 15 kts | 187° |
| 2026-04-22 15:32 | 25.25333 | 55.37441 | 39 ft | 15 kts | 121° |
| 2026-04-22 15:32 | 25.25274 | 55.37547 | 39 ft | 17 kts | 121° |
| 2026-04-22 15:32 | 25.25210 | 55.37662 | 39 ft | 17 kts | 122° |
| 2026-04-22 15:32 | 25.25143 | 55.37783 | 39 ft | 18 kts | 121° |
| 2026-04-22 15:33 | 25.25075 | 55.37907 | 39 ft | 19 kts | 120° |
| 2026-04-22 15:33 | 25.25003 | 55.38034 | 39 ft | 17 kts | 121° |
| 2026-04-22 15:33 | 25.24935 | 55.38119 | 39 ft | 11 kts | 167° |
| 2026-04-22 15:33 | 25.24921 | 55.38119 | 39 ft | 0 kts | 192° |
| 2026-04-22 15:36 | 25.24920 | 55.38118 | 39 ft | 0 kts | 197° |
| 2026-04-22 15:36 | 25.24911 | 55.38114 | 39 ft | 2 kts | 204° |
| 2026-04-22 15:36 | 25.24892 | 55.38103 | 39 ft | 4 kts | 208° |
| 2026-04-22 15:37 | 25.24863 | 55.38084 | 39 ft | 5 kts | 212° |
| 2026-04-22 15:37 | 25.24826 | 55.38058 | 39 ft | 7 kts | 216° |
| 2026-04-22 15:37 | 25.24816 | 55.38006 | 39 ft | 8 kts | 297° |
| 2026-04-22 15:37 | 25.24851 | 55.37945 | 39 ft | 11 kts | 302° |
| 2026-04-22 15:38 | 25.24941 | 55.37781 | 39 ft | 49 kts | 301° |
| 2026-04-22 15:38 | 25.25593 | 55.36607 | 39 ft | 148 kts | 301° |
| 2026-04-22 15:38 | 25.26190 | 55.35530 | 280 ft | 170 kts | 302° |
| 2026-04-22 15:39 | 25.26792 | 55.34434 | 921 ft | 167 kts | 303° |
| 2026-04-22 15:39 | 25.27409 | 55.33330 | 1439 ft | 171 kts | 302° |
| 2026-04-22 15:39 | 25.28036 | 55.32184 | 1875 ft | 182 kts | 303° |
| 2026-04-22 15:39 | 25.28731 | 55.30948 | 2237 ft | 197 kts | 303° |
| 2026-04-22 15:40 | 25.29314 | 55.29559 | 2701 ft | 207 kts | 282° |
| 2026-04-22 15:40 | 25.29099 | 55.27968 | 3102 ft | 220 kts | 244° |
| 2026-04-22 15:40 | 25.28305 | 55.26442 | 3419 ft | 238 kts | 243° |
| 2026-04-22 15:40 | 25.27562 | 55.24741 | 3905 ft | 250 kts | 245° |
| 2026-04-22 15:41 | 25.26819 | 55.23000 | 4690 ft | 252 kts | 245° |
| 2026-04-22 15:41 | 25.26062 | 55.21240 | 5464 ft | 255 kts | 245° |
| 2026-04-22 15:41 | 25.25305 | 55.19456 | 6194 ft | 259 kts | 245° |
| 2026-04-22 15:41 | 25.24445 | 55.17697 | 6877 ft | 263 kts | 231° |
| 2026-04-22 15:42 | 25.23029 | 55.16407 | 7018 ft | 269 kts | 201° |
| 2026-04-22 15:42 | 25.21174 | 55.16169 | 7104 ft | 279 kts | 166° |
| 2026-04-22 15:42 | 25.19383 | 55.16816 | 8009 ft | 272 kts | 150° |
| 2026-04-22 15:42 | 25.17987 | 55.18150 | 8809 ft | 267 kts | 122° |
| 2026-04-22 15:43 | 25.17264 | 55.20071 | 9304 ft | 278 kts | 107° |
| 2026-04-22 15:43 | 25.16490 | 55.22042 | 9917 ft | 285 kts | 121° |
| 2026-04-22 15:43 | 25.15395 | 55.23869 | 10664 ft | 288 kts | 122° |
| 2026-04-22 15:43 | 25.14395 | 55.25773 | 11391 ft | 291 kts | 118° |
| 2026-04-22 15:44 | 25.13431 | 55.27752 | 12134 ft | 294 kts | 119° |
| 2026-04-22 15:44 | 25.12462 | 55.29724 | 12874 ft | 296 kts | 119° |
| 2026-04-22 15:44 | 25.11483 | 55.31731 | 13609 ft | 299 kts | 119° |
| 2026-04-22 15:44 | 25.10520 | 55.33759 | 14328 ft | 302 kts | 117° |
| 2026-04-22 15:45 | 25.09630 | 55.35903 | 14807 ft | 311 kts | 115° |
| 2026-04-22 15:45 | 25.08765 | 55.38064 | 14778 ft | 309 kts | 115° |
| 2026-04-22 15:45 | 25.07870 | 55.40231 | 14940 ft | 317 kts | 116° |
| 2026-04-22 15:45 | 25.06702 | 55.42378 | 15154 ft | 336 kts | 132° |
| 2026-04-22 15:46 | 25.04752 | 55.43910 | 15246 ft | 358 kts | 158° |
| 2026-04-22 15:46 | 25.02278 | 55.44351 | 15731 ft | 371 kts | 178° |
| 2026-04-22 15:46 | 24.99673 | 55.44268 | 16323 ft | 378 kts | 178° |
| 2026-04-22 15:46 | 24.97011 | 55.44341 | 16960 ft | 382 kts | 174° |
| 2026-04-22 15:47 | 24.94364 | 55.44546 | 17640 ft | 385 kts | 174° |
| 2026-04-22 15:47 | 24.91695 | 55.44766 | 18343 ft | 387 kts | 174° |
| 2026-04-22 15:47 | 24.89233 | 55.44966 | 18974 ft | 389 kts | 174° |
| 2026-04-22 15:47 | 24.86735 | 55.45181 | 19594 ft | 391 kts | 174° |
| 2026-04-22 15:48 | 24.84293 | 55.45403 | 20182 ft | 393 kts | 174° |
| 2026-04-22 15:48 | 24.81359 | 55.45673 | 20872 ft | 396 kts | 174° |
| 2026-04-22 15:48 | 24.78816 | 55.45906 | 21438 ft | 398 kts | 174° |
| 2026-04-22 15:48 | 24.76619 | 55.46109 | 21916 ft | 400 kts | 174° |
| 2026-04-22 15:49 | 24.73850 | 55.46366 | 22498 ft | 403 kts | 174° |
| 2026-04-22 15:49 | 24.71074 | 55.46625 | 23064 ft | 405 kts | 174° |
| 2026-04-22 15:49 | 24.68256 | 55.46889 | 23614 ft | 408 kts | 174° |
| 2026-04-22 15:49 | 24.65419 | 55.47154 | 24154 ft | 410 kts | 175° |
| 2026-04-22 15:50 | 24.62539 | 55.47423 | 24666 ft | 413 kts | 175° |
| 2026-04-22 15:50 | 24.59682 | 55.47691 | 25173 ft | 416 kts | 175° |
| 2026-04-22 15:50 | 24.56791 | 55.47961 | 25659 ft | 419 kts | 175° |
| 2026-04-22 15:50 | 24.53860 | 55.48235 | 26131 ft | 421 kts | 175° |
| 2026-04-22 15:51 | 24.50918 | 55.48511 | 26586 ft | 424 kts | 176° |
| 2026-04-22 15:51 | 24.47940 | 55.48789 | 27025 ft | 427 kts | 176° |
| 2026-04-22 15:51 | 24.44977 | 55.49066 | 27453 ft | 430 kts | 176° |
| 2026-04-22 15:51 | 24.41991 | 55.49345 | 27776 ft | 433 kts | 176° |
| 2026-04-22 15:52 | 24.38979 | 55.49627 | 27773 ft | 438 kts | 176° |
| 2026-04-22 15:52 | 24.35950 | 55.49910 | 27777 ft | 435 kts | 176° |
| 2026-04-22 15:52 | 24.32974 | 55.50189 | 27777 ft | 432 kts | 176° |
| 2026-04-22 15:52 | 24.29986 | 55.50468 | 27777 ft | 431 kts | 176° |
| 2026-04-22 15:53 | 24.27006 | 55.50746 | 27777 ft | 431 kts | 176° |
| 2026-04-22 15:53 | 24.24015 | 55.51025 | 27777 ft | 432 kts | 176° |
| 2026-04-22 15:53 | 24.21019 | 55.51304 | 27777 ft | 432 kts | 176° |
| 2026-04-22 15:53 | 24.18033 | 55.51582 | 27777 ft | 432 kts | 176° |
| 2026-04-22 15:54 | 24.15052 | 55.51860 | 27777 ft | 432 kts | 176° |
| 2026-04-22 15:54 | 24.12079 | 55.52137 | 27777 ft | 432 kts | 176° |
| 2026-04-22 15:54 | 24.09074 | 55.52417 | 27777 ft | 432 kts | 176° |
| 2026-04-22 15:54 | 24.06085 | 55.52685 | 27776 ft | 432 kts | 177° |
| 2026-04-22 15:55 | 24.03076 | 55.52780 | 27777 ft | 431 kts | 182° |
| 2026-04-22 15:55 | 24.00105 | 55.52555 | 27776 ft | 430 kts | 188° |
| 2026-04-22 15:55 | 23.97175 | 55.51914 | 27778 ft | 430 kts | 194° |
| 2026-04-22 15:55 | 23.94302 | 55.51049 | 27777 ft | 430 kts | 195° |
| 2026-04-22 15:56 | 23.91434 | 55.50200 | 27777 ft | 430 kts | 195° |
| 2026-04-22 15:56 | 23.88539 | 55.49379 | 27777 ft | 430 kts | 194° |
| 2026-04-22 15:56 | 23.85615 | 55.48545 | 27777 ft | 430 kts | 195° |
| 2026-04-22 15:56 | 23.82708 | 55.47696 | 27777 ft | 430 kts | 195° |
| 2026-04-22 15:57 | 23.79823 | 55.46846 | 27777 ft | 430 kts | 195° |
| 2026-04-22 15:57 | 23.76911 | 55.45988 | 27777 ft | 430 kts | 195° |
| 2026-04-22 15:57 | 23.74021 | 55.45137 | 27777 ft | 430 kts | 195° |
| 2026-04-22 15:57 | 23.71111 | 55.44279 | 27777 ft | 430 kts | 195° |
| 2026-04-22 15:58 | 23.68203 | 55.43420 | 27777 ft | 430 kts | 195° |
| 2026-04-22 15:58 | 23.65280 | 55.42555 | 27776 ft | 429 kts | 195° |
| 2026-04-22 15:58 | 23.62388 | 55.41700 | 27777 ft | 428 kts | 195° |
| 2026-04-22 15:58 | 23.59574 | 55.40868 | 27777 ft | 428 kts | 195° |
| 2026-04-22 15:59 | 23.56695 | 55.40017 | 27777 ft | 428 kts | 195° |
| 2026-04-22 15:59 | 23.53829 | 55.39170 | 27777 ft | 428 kts | 195° |
| 2026-04-22 15:59 | 23.50914 | 55.38309 | 27777 ft | 428 kts | 195° |
| 2026-04-22 15:59 | 23.48014 | 55.37451 | 27777 ft | 428 kts | 195° |
| 2026-04-22 16:00 | 23.46085 | 55.36881 | 27777 ft | 428 kts | 195° |
| 2026-04-22 16:00 | 23.42267 | 55.35752 | 27777 ft | 428 kts | 195° |
| 2026-04-22 16:00 | 23.39349 | 55.34890 | 27777 ft | 428 kts | 195° |
| 2026-04-22 16:00 | 23.36433 | 55.34029 | 27777 ft | 427 kts | 195° |
| 2026-04-22 16:01 | 23.33503 | 55.33164 | 27777 ft | 427 kts | 195° |
| 2026-04-22 16:01 | 23.30614 | 55.32312 | 27777 ft | 427 kts | 195° |
| 2026-04-22 16:01 | 23.27761 | 55.31470 | 27777 ft | 427 kts | 195° |
| 2026-04-22 16:01 | 23.24831 | 55.30606 | 27777 ft | 427 kts | 195° |
| 2026-04-22 16:02 | 23.21911 | 55.29746 | 27777 ft | 427 kts | 195° |
| 2026-04-22 16:02 | 23.19067 | 55.28909 | 27777 ft | 427 kts | 195° |
| 2026-04-22 16:02 | 23.16193 | 55.28062 | 27777 ft | 427 kts | 195° |
| 2026-04-22 16:02 | 23.13312 | 55.27152 | 27776 ft | 427 kts | 199° |
| 2026-04-22 16:03 | 23.10590 | 55.25922 | 27776 ft | 427 kts | 206° |
| 2026-04-22 16:03 | 23.08073 | 55.24238 | 27777 ft | 427 kts | 216° |
| 2026-04-22 16:03 | 23.05825 | 55.22122 | 27777 ft | 428 kts | 223° |
| 2026-04-22 16:03 | 23.03837 | 55.19696 | 27776 ft | 430 kts | 231° |
| 2026-04-22 16:04 | 23.02249 | 55.16937 | 27776 ft | 433 kts | 242° |
| 2026-04-22 16:04 | 23.01146 | 55.13893 | 27778 ft | 436 kts | 250° |
| 2026-04-22 16:04 | 23.00352 | 55.10624 | 27777 ft | 437 kts | 255° |
| 2026-04-22 16:04 | 22.99731 | 55.07412 | 27776 ft | 437 kts | 256° |
| 2026-04-22 16:05 | 22.99310 | 55.05242 | 27777 ft | 436 kts | 255° |
| 2026-04-22 16:05 | 22.98436 | 55.00952 | 27777 ft | 435 kts | 255° |
| 2026-04-22 16:05 | 22.97784 | 54.97757 | 27777 ft | 435 kts | 255° |
| 2026-04-22 16:05 | 22.97141 | 54.94554 | 27777 ft | 435 kts | 256° |
| 2026-04-22 16:06 | 22.96498 | 54.91334 | 27777 ft | 436 kts | 256° |
| 2026-04-22 16:06 | 22.95847 | 54.88074 | 27777 ft | 436 kts | 256° |
| 2026-04-22 16:06 | 22.95207 | 54.84866 | 27777 ft | 437 kts | 256° |
| 2026-04-22 16:06 | 22.94557 | 54.81606 | 27777 ft | 438 kts | 256° |
| 2026-04-22 16:07 | 22.93912 | 54.78373 | 27778 ft | 440 kts | 256° |
| 2026-04-22 16:07 | 22.93261 | 54.75114 | 27777 ft | 449 kts | 256° |
| 2026-04-22 16:07 | 22.92590 | 54.71758 | 27777 ft | 457 kts | 256° |
| 2026-04-22 16:07 | 22.91902 | 54.68315 | 27777 ft | 464 kts | 256° |
| 2026-04-22 16:08 | 22.91210 | 54.64858 | 27776 ft | 469 kts | 256° |
| 2026-04-22 16:08 | 22.90517 | 54.61390 | 27776 ft | 470 kts | 256° |
| 2026-04-22 16:08 | 22.89819 | 54.57899 | 27777 ft | 470 kts | 256° |
| 2026-04-22 16:08 | 22.89124 | 54.54431 | 27776 ft | 470 kts | 256° |
| 2026-04-22 16:09 | 22.88420 | 54.50927 | 27776 ft | 470 kts | 256° |
| 2026-04-22 16:09 | 22.87727 | 54.47481 | 27777 ft | 470 kts | 256° |
| 2026-04-22 16:09 | 22.87014 | 54.43939 | 27781 ft | 470 kts | 256° |
| 2026-04-22 16:09 | 22.86314 | 54.40463 | 27786 ft | 469 kts | 256° |
| 2026-04-22 16:10 | 22.85610 | 54.36971 | 27790 ft | 469 kts | 256° |
| 2026-04-22 16:10 | 22.84920 | 54.33555 | 27794 ft | 468 kts | 256° |
| 2026-04-22 16:10 | 22.84453 | 54.31246 | 27796 ft | 468 kts | 256° |
| 2026-04-22 16:10 | 22.83523 | 54.26648 | 27801 ft | 468 kts | 256° |
| 2026-04-22 16:11 | 22.82818 | 54.23165 | 27803 ft | 467 kts | 256° |
| 2026-04-22 16:11 | 22.82113 | 54.19688 | 27804 ft | 467 kts | 256° |
| 2026-04-22 16:11 | 22.81414 | 54.16246 | 27804 ft | 467 kts | 256° |
| 2026-04-22 16:11 | 22.80709 | 54.12782 | 27804 ft | 467 kts | 256° |
| 2026-04-22 16:12 | 22.80002 | 54.09309 | 27804 ft | 467 kts | 256° |
| 2026-04-22 16:12 | 22.79295 | 54.05841 | 27804 ft | 467 kts | 256° |
| 2026-04-22 16:12 | 22.78665 | 54.02362 | 27803 ft | 468 kts | 259° |
| 2026-04-22 16:12 | 22.78275 | 53.98825 | 27802 ft | 470 kts | 264° |
| 2026-04-22 16:13 | 22.78252 | 53.95217 | 27805 ft | 471 kts | 270° |
| 2026-04-22 16:13 | 22.78381 | 53.91665 | 27804 ft | 472 kts | 270° |
| 2026-04-22 16:13 | 22.78492 | 53.88112 | 27804 ft | 471 kts | 269° |
| 2026-04-22 16:13 | 22.78579 | 53.84524 | 27804 ft | 471 kts | 269° |
| 2026-04-22 16:14 | 22.78671 | 53.80954 | 27804 ft | 471 kts | 270° |
| 2026-04-22 16:14 | 22.78776 | 53.77370 | 27804 ft | 471 kts | 270° |
| 2026-04-22 16:14 | 22.78886 | 53.73788 | 27804 ft | 471 kts | 270° |
| 2026-04-22 16:14 | 22.78995 | 53.70238 | 27804 ft | 471 kts | 270° |
| 2026-04-22 16:15 | 22.79105 | 53.66672 | 27804 ft | 471 kts | 270° |
| 2026-04-22 16:15 | 22.79215 | 53.63115 | 27804 ft | 471 kts | 270° |
| 2026-04-22 16:15 | 22.79326 | 53.59539 | 27804 ft | 471 kts | 270° |
| 2026-04-22 16:15 | 22.79438 | 53.55948 | 27804 ft | 471 kts | 270° |
| 2026-04-22 16:16 | 22.79549 | 53.52354 | 27804 ft | 471 kts | 270° |
| 2026-04-22 16:16 | 22.79657 | 53.48840 | 27804 ft | 471 kts | 270° |
| 2026-04-22 16:16 | 22.79767 | 53.45262 | 27804 ft | 471 kts | 270° |
| 2026-04-22 16:16 | 22.79875 | 53.41732 | 27804 ft | 471 kts | 270° |
| 2026-04-22 16:17 | 22.79982 | 53.38203 | 27804 ft | 472 kts | 270° |
| 2026-04-22 16:17 | 22.80089 | 53.34661 | 27804 ft | 472 kts | 270° |
| 2026-04-22 16:17 | 22.80196 | 53.31082 | 27804 ft | 471 kts | 270° |
| 2026-04-22 16:17 | 22.80269 | 53.28674 | 27804 ft | 471 kts | 270° |
| 2026-04-22 16:18 | 22.80410 | 53.23896 | 27804 ft | 471 kts | 270° |
| 2026-04-22 16:18 | 22.80480 | 53.21522 | 27804 ft | 471 kts | 270° |
| 2026-04-22 16:18 | 22.80618 | 53.16789 | 27804 ft | 471 kts | 270° |
| 2026-04-22 16:18 | 22.80721 | 53.13232 | 27804 ft | 471 kts | 270° |
| 2026-04-22 16:19 | 22.80825 | 53.09627 | 27804 ft | 471 kts | 270° |
| 2026-04-22 16:19 | 22.80927 | 53.06044 | 27804 ft | 471 kts | 270° |
| 2026-04-22 16:19 | 22.81028 | 53.02469 | 27804 ft | 471 kts | 270° |
| 2026-04-22 16:19 | 22.81128 | 52.98887 | 27804 ft | 472 kts | 269° |
| 2026-04-22 16:20 | 22.81227 | 52.95337 | 27804 ft | 473 kts | 269° |
| 2026-04-22 16:20 | 22.81326 | 52.91737 | 27804 ft | 474 kts | 269° |
| 2026-04-22 16:20 | 22.81424 | 52.88154 | 27804 ft | 475 kts | 269° |
| 2026-04-22 16:20 | 22.81522 | 52.84540 | 27804 ft | 476 kts | 269° |
| 2026-04-22 16:21 | 22.81619 | 52.80940 | 27804 ft | 477 kts | 269° |
| 2026-04-22 16:21 | 22.81715 | 52.77332 | 27803 ft | 477 kts | 269° |
| 2026-04-22 16:21 | 22.81811 | 52.73705 | 27802 ft | 478 kts | 269° |
| 2026-04-22 16:21 | 22.81906 | 52.70094 | 27802 ft | 478 kts | 269° |
| 2026-04-22 16:22 | 22.82093 | 52.62897 | 27800 ft | 478 kts | 269° |
| 2026-04-22 16:22 | 22.82186 | 52.59262 | 27799 ft | 478 kts | 269° |
| 2026-04-22 16:22 | 22.82278 | 52.55638 | 27798 ft | 478 kts | 269° |
| 2026-04-22 16:23 | 22.82458 | 52.48419 | 27798 ft | 479 kts | 269° |
| 2026-04-22 16:23 | 22.82541 | 52.44792 | 27798 ft | 478 kts | 269° |
| 2026-04-22 16:23 | 22.82615 | 52.41128 | 27798 ft | 478 kts | 269° |
| 2026-04-22 16:24 | 22.82687 | 52.37505 | 27798 ft | 478 kts | 269° |
| 2026-04-22 16:24 | 22.82834 | 52.30235 | 27798 ft | 478 kts | 269° |
| 2026-04-22 16:24 | 22.82908 | 52.26589 | 27798 ft | 478 kts | 269° |
| 2026-04-22 16:25 | 22.82980 | 52.22938 | 27798 ft | 478 kts | 269° |
| 2026-04-22 16:25 | 22.83122 | 52.15675 | 27798 ft | 478 kts | 269° |
| 2026-04-22 16:25 | 22.83190 | 52.12080 | 27798 ft | 478 kts | 269° |
| 2026-04-22 16:26 | 22.83258 | 52.08502 | 27798 ft | 478 kts | 269° |
| 2026-04-22 16:26 | 22.83303 | 52.06098 | 27798 ft | 478 kts | 269° |
| 2026-04-22 16:26 | 22.83392 | 52.01266 | 27798 ft | 478 kts | 269° |
| 2026-04-22 16:26 | 22.83458 | 51.97652 | 27798 ft | 478 kts | 269° |
| 2026-04-22 16:27 | 22.83524 | 51.94002 | 27798 ft | 478 kts | 269° |
| 2026-04-22 16:27 | 22.83588 | 51.90380 | 27798 ft | 478 kts | 269° |
| 2026-04-22 16:27 | 22.83652 | 51.86769 | 27798 ft | 478 kts | 269° |
| 2026-04-22 16:27 | 22.83693 | 51.84381 | 27798 ft | 478 kts | 269° |
| 2026-04-22 16:28 | 22.83775 | 51.79588 | 27798 ft | 478 kts | 269° |
| 2026-04-22 16:28 | 22.83836 | 51.75996 | 27798 ft | 478 kts | 269° |
| 2026-04-22 16:28 | 22.83897 | 51.72347 | 27798 ft | 478 kts | 269° |
| 2026-04-22 16:28 | 22.83937 | 51.69917 | 27798 ft | 478 kts | 269° |
| 2026-04-22 16:29 | 22.84015 | 51.65105 | 27798 ft | 478 kts | 269° |
| 2026-04-22 16:29 | 22.84073 | 51.61475 | 27798 ft | 478 kts | 269° |
| 2026-04-22 16:29 | 22.84130 | 51.57880 | 27798 ft | 478 kts | 269° |
| 2026-04-22 16:29 | 22.84186 | 51.54275 | 27798 ft | 478 kts | 269° |
| 2026-04-22 16:30 | 22.84223 | 51.51838 | 27798 ft | 478 kts | 269° |
| 2026-04-22 16:30 | 22.84296 | 51.46993 | 27798 ft | 478 kts | 269° |
| 2026-04-22 16:30 | 22.84410 | 51.43376 | 27798 ft | 479 kts | 271° |
| 2026-04-22 16:30 | 22.84671 | 51.39779 | 27798 ft | 479 kts | 273° |
| 2026-04-22 16:31 | 22.84970 | 51.36195 | 27798 ft | 479 kts | 273° |
| 2026-04-22 16:31 | 22.85157 | 51.33748 | 27798 ft | 479 kts | 272° |
| 2026-04-22 16:31 | 22.85410 | 51.30171 | 27798 ft | 479 kts | 272° |
| 2026-04-22 16:31 | 22.85744 | 51.25318 | 27798 ft | 479 kts | 272° |
| 2026-04-22 16:32 | 22.85993 | 51.21734 | 27798 ft | 479 kts | 272° |
| 2026-04-22 16:32 | 22.86160 | 51.19344 | 27798 ft | 479 kts | 272° |
| 2026-04-22 16:32 | 22.86411 | 51.15698 | 27798 ft | 479 kts | 272° |
| 2026-04-22 16:32 | 22.86739 | 51.10891 | 27798 ft | 479 kts | 272° |
| 2026-04-22 16:33 | 22.86900 | 51.08490 | 27800 ft | 478 kts | 274° |
| 2026-04-22 16:33 | 22.87143 | 51.04856 | 27796 ft | 466 kts | 275° |
| 2026-04-22 16:33 | 22.87456 | 51.00225 | 27799 ft | 457 kts | 275° |
| 2026-04-22 16:33 | 22.87691 | 50.96727 | 27799 ft | 459 kts | 275° |
| 2026-04-22 16:34 | 22.87922 | 50.93261 | 27798 ft | 461 kts | 275° |
| 2026-04-22 16:34 | 22.88076 | 50.90945 | 27798 ft | 461 kts | 275° |
| 2026-04-22 16:34 | 22.88308 | 50.87442 | 27798 ft | 462 kts | 275° |
| 2026-04-22 16:34 | 22.88616 | 50.82765 | 27798 ft | 461 kts | 275° |
| 2026-04-22 16:35 | 22.88769 | 50.80429 | 27798 ft | 461 kts | 275° |
| 2026-04-22 16:35 | 22.89074 | 50.75777 | 27798 ft | 460 kts | 275° |
| 2026-04-22 16:35 | 22.89303 | 50.72302 | 27796 ft | 462 kts | 272° |
| 2026-04-22 16:35 | 22.89456 | 50.69941 | 27800 ft | 467 kts | 271° |
| 2026-04-22 16:36 | 22.89759 | 50.65193 | 27798 ft | 477 kts | 272° |
| 2026-04-22 16:36 | 22.89991 | 50.61582 | 27798 ft | 479 kts | 272° |
| 2026-04-22 16:36 | 22.90227 | 50.57943 | 27798 ft | 479 kts | 272° |
| 2026-04-22 16:36 | 22.90459 | 50.54333 | 27798 ft | 478 kts | 272° |
| 2026-04-22 16:37 | 22.90688 | 50.50753 | 27798 ft | 477 kts | 272° |
| 2026-04-22 16:37 | 22.90916 | 50.47163 | 27798 ft | 477 kts | 272° |
| 2026-04-22 16:37 | 22.91145 | 50.43545 | 27798 ft | 477 kts | 272° |
| 2026-04-22 16:37 | 22.91372 | 50.39949 | 27798 ft | 477 kts | 272° |
| 2026-04-22 16:38 | 22.91595 | 50.36414 | 27804 ft | 476 kts | 272° |
| 2026-04-22 16:38 | 22.91821 | 50.32814 | 27814 ft | 476 kts | 271° |
| 2026-04-22 16:38 | 22.92047 | 50.29188 | 27822 ft | 476 kts | 271° |
| 2026-04-22 16:38 | 22.92269 | 50.25627 | 27831 ft | 475 kts | 271° |
| 2026-04-22 16:39 | 22.92492 | 50.22035 | 27840 ft | 475 kts | 271° |
| 2026-04-22 16:39 | 22.92713 | 50.18452 | 27849 ft | 475 kts | 271° |
| 2026-04-22 16:39 | 22.92933 | 50.14888 | 27857 ft | 474 kts | 271° |
| 2026-04-22 16:39 | 22.93154 | 50.11278 | 27858 ft | 474 kts | 271° |
| 2026-04-22 16:40 | 22.93372 | 50.07715 | 27858 ft | 474 kts | 271° |
| 2026-04-22 16:40 | 22.93590 | 50.04131 | 27858 ft | 474 kts | 271° |
| 2026-04-22 16:40 | 22.94025 | 49.96956 | 27858 ft | 473 kts | 271° |
| 2026-04-22 16:41 | 22.94240 | 49.93378 | 27858 ft | 473 kts | 271° |
| 2026-04-22 16:41 | 22.94454 | 49.89807 | 27858 ft | 473 kts | 271° |
| 2026-04-22 16:41 | 22.94666 | 49.86261 | 27858 ft | 473 kts | 271° |
| 2026-04-22 16:41 | 22.94879 | 49.82674 | 27858 ft | 473 kts | 271° |
| 2026-04-22 16:42 | 22.95090 | 49.79118 | 27858 ft | 472 kts | 271° |
| 2026-04-22 16:42 | 22.95301 | 49.75558 | 27858 ft | 472 kts | 271° |
| 2026-04-22 16:42 | 22.95509 | 49.72017 | 27858 ft | 472 kts | 271° |
| 2026-04-22 16:42 | 22.95719 | 49.68435 | 27858 ft | 472 kts | 271° |
| 2026-04-22 16:43 | 22.95925 | 49.64897 | 27860 ft | 472 kts | 271° |
| 2026-04-22 16:43 | 22.96134 | 49.61313 | 27863 ft | 472 kts | 271° |
| 2026-04-22 16:43 | 22.96339 | 49.57769 | 27866 ft | 472 kts | 271° |
| 2026-04-22 16:43 | 22.96546 | 49.54183 | 27870 ft | 472 kts | 271° |
| 2026-04-22 16:44 | 22.96748 | 49.50661 | 27873 ft | 472 kts | 271° |
| 2026-04-22 16:44 | 22.96951 | 49.47123 | 27876 ft | 471 kts | 271° |
| 2026-04-22 16:44 | 22.97156 | 49.43518 | 27880 ft | 471 kts | 271° |
| 2026-04-22 16:44 | 22.97357 | 49.39990 | 27880 ft | 471 kts | 271° |
| 2026-04-22 16:45 | 22.97559 | 49.36416 | 27880 ft | 471 kts | 271° |
| 2026-04-22 16:45 | 22.97760 | 49.32845 | 27881 ft | 471 kts | 271° |
| 2026-04-22 16:45 | 22.97960 | 49.29293 | 27881 ft | 471 kts | 271° |
| 2026-04-22 16:45 | 22.98159 | 49.25740 | 27881 ft | 470 kts | 271° |
| 2026-04-22 16:46 | 22.98357 | 49.22194 | 27881 ft | 470 kts | 271° |
| 2026-04-22 16:46 | 22.98552 | 49.18677 | 27881 ft | 470 kts | 271° |
| 2026-04-22 16:46 | 22.98750 | 49.15091 | 27881 ft | 469 kts | 271° |
| 2026-04-22 16:46 | 22.98880 | 49.12742 | 27881 ft | 468 kts | 271° |
| 2026-04-22 16:47 | 22.99075 | 49.09193 | 27881 ft | 467 kts | 271° |
| 2026-04-22 16:47 | 22.99267 | 49.05672 | 27881 ft | 466 kts | 271° |
| 2026-04-22 16:47 | 22.99458 | 49.02165 | 27881 ft | 465 kts | 271° |
| 2026-04-22 16:47 | 22.99732 | 48.97472 | 27880 ft | 464 kts | 272° |
| 2026-04-22 16:48 | 23.00011 | 48.94009 | 27881 ft | 464 kts | 273° |
| 2026-04-22 16:48 | 23.00321 | 48.90513 | 27881 ft | 463 kts | 273° |
| 2026-04-22 16:48 | 23.00616 | 48.87020 | 27881 ft | 464 kts | 272° |
| 2026-04-22 16:48 | 23.00898 | 48.83532 | 27881 ft | 464 kts | 272° |
| 2026-04-22 16:49 | 23.01181 | 48.80016 | 27881 ft | 464 kts | 272° |
| 2026-04-22 16:49 | 23.01463 | 48.76530 | 27880 ft | 464 kts | 272° |
| 2026-04-22 16:49 | 23.01745 | 48.73040 | 27880 ft | 464 kts | 272° |
| 2026-04-22 16:49 | 23.02025 | 48.69556 | 27880 ft | 464 kts | 272° |
| 2026-04-22 16:50 | 23.02304 | 48.66056 | 27880 ft | 464 kts | 272° |
| 2026-04-22 16:50 | 23.02583 | 48.62555 | 27880 ft | 463 kts | 272° |
| 2026-04-22 16:50 | 23.02860 | 48.59052 | 27880 ft | 463 kts | 272° |
| 2026-04-22 16:50 | 23.03138 | 48.55543 | 27880 ft | 463 kts | 272° |
| 2026-04-22 16:51 | 23.03413 | 48.52059 | 27880 ft | 463 kts | 272° |
| 2026-04-22 16:51 | 23.03684 | 48.48605 | 27880 ft | 463 kts | 272° |
| 2026-04-22 16:51 | 23.03956 | 48.45131 | 27880 ft | 463 kts | 272° |
| 2026-04-22 16:51 | 23.04231 | 48.41607 | 27880 ft | 463 kts | 272° |
| 2026-04-22 16:52 | 23.04500 | 48.38171 | 27879 ft | 451 kts | 272° |
| 2026-04-22 16:52 | 23.04759 | 48.34874 | 27880 ft | 434 kts | 272° |
| 2026-04-22 16:52 | 23.04931 | 48.32687 | 27881 ft | 424 kts | 272° |
| 2026-04-22 16:52 | 23.05093 | 48.30589 | 27882 ft | 422 kts | 272° |
| 2026-04-22 16:53 | 23.05418 | 48.26314 | 27881 ft | 433 kts | 272° |
| 2026-04-22 16:53 | 23.05667 | 48.23054 | 27880 ft | 435 kts | 272° |
| 2026-04-22 16:53 | 23.05918 | 48.19800 | 27880 ft | 434 kts | 272° |